Time,TemperatureF,DewpointF,PressureIn,WindDirection,WindDirectionDegrees,WindSpeedMPH,WindSpeedGustMPH,Humidity,HourlyPrecipIn,Conditions,Clouds,dailyrainin,SoftwareType,DateUTC
2013-01-21 00:03:00,27.9,13.0,30.07,WSW,248,5.4,5.4,53,0.00,,,0.00,WUHU216HW,2013-01-21 05:03:00,
2013-01-21 00:04:00,27.9,13.0,30.07,WSW,248,5.4,5.4,53,0.00,,,0.00,WUHU216HW,2013-01-21 05:04:00,
2013-01-21 00:06:00,27.9,13.0,30.07,West,270,2.0,5.4,53,2.59,,,0.02,WUHU216HW,2013-01-21 05:06:00,
2013-01-21 00:13:00,27.7,12.8,30.07,West,270,0.7,2.0,53,0.00,,,0.00,WUHU216HW,2013-01-21 05:13:00,
2013-01-21 00:19:00,27.7,12.3,30.07,West,270,1.3,6.7,52,2.59,,,0.02,WUHU216HW,2013-01-21 05:19:00,
2013-01-21 00:24:00,27.7,12.0,30.07,NW,315,3.1,6.7,51,0.00,,,0.00,WUHU216HW,2013-01-21 05:24:00,
2013-01-21 00:29:00,27.5,11.8,30.07,WNW,293,0.4,3.1,51,2.59,,,0.02,WUHU216HW,2013-01-21 05:29:00,
2013-01-21 00:34:00,27.5,11.8,30.06,NE,45,2.9,2.9,51,0.00,,,0.00,WUHU216HW,2013-01-21 05:34:00,
2013-01-21 00:39:00,27.4,11.6,30.07,NW,315,1.8,3.6,51,2.59,,,0.02,WUHU216HW,2013-01-21 05:39:00,
2013-01-21 00:44:00,27.4,12.0,30.07,NNW,338,2.5,3.6,52,0.00,,,0.00,WUHU216HW,2013-01-21 05:44:00,
2013-01-21 00:54:00,27.0,11.6,30.07,NW,315,1.1,1.8,52,0.00,,,0.00,WUHU216HW,2013-01-21 05:54:00,
2013-01-21 01:04:00,27.0,11.3,30.08,NNE,23,0.2,4.0,51,0.00,,,0.00,WUHU216HW,2013-01-21 06:04:00,
2013-01-21 01:09:00,26.8,11.1,30.08,North,0,1.8,3.1,51,2.59,,,0.03,WUHU216HW,2013-01-21 06:09:00,
2013-01-21 01:14:00,26.8,10.6,30.08,WSW,248,2.5,2.5,50,0.00,,,0.00,WUHU216HW,2013-01-21 06:14:00,
2013-01-21 01:19:00,26.6,10.4,30.08,South,180,0.2,2.5,50,2.59,,,0.03,WUHU216HW,2013-01-21 06:19:00,
2013-01-21 01:24:00,26.6,10.4,30.09,South,180,0.2,1.8,50,0.00,,,0.00,WUHU216HW,2013-01-21 06:24:00,
2013-01-21 01:29:00,26.6,10.4,30.09,South,180,1.8,3.4,50,2.59,,,0.03,WUHU216HW,2013-01-21 06:29:00,
2013-01-21 01:34:00,26.5,10.3,30.09,WSW,248,0.2,3.4,50,0.00,,,0.00,WUHU216HW,2013-01-21 06:34:00,
2013-01-21 01:39:00,26.3,10.5,30.09,WSW,248,0.0,1.3,51,2.59,,,0.03,WUHU216HW,2013-01-21 06:39:00,
2013-01-21 01:44:00,26.3,9.6,30.09,WSW,248,2.0,3.1,49,0.00,,,0.00,WUHU216HW,2013-01-21 06:44:00,
2013-01-21 01:49:00,26.3,9.6,30.09,WSW,248,1.8,3.1,49,2.59,,,0.03,WUHU216HW,2013-01-21 06:49:00,
2013-01-21 01:54:00,26.3,9.6,30.10,West,270,1.1,1.8,49,0.00,,,0.00,WUHU216HW,2013-01-21 06:54:00,
2013-01-21 01:59:00,26.1,10.0,30.10,SSW,203,0.4,1.1,50,2.59,,,0.03,WUHU216HW,2013-01-21 06:59:00,
2013-01-21 02:04:00,25.9,10.2,30.10,West,270,0.0,1.1,51,0.00,,,0.00,WUHU216HW,2013-01-21 07:04:00,
2013-01-21 02:09:00,25.9,10.2,30.10,West,270,0.0,0.7,51,2.59,,,0.04,WUHU216HW,2013-01-21 07:09:00,
2013-01-21 02:14:00,25.9,9.8,30.10,NW,315,0.7,0.9,50,0.00,,,0.00,WUHU216HW,2013-01-21 07:14:00,
2013-01-21 02:19:00,25.9,9.8,30.09,West,270,0.4,1.3,50,2.59,,,0.04,WUHU216HW,2013-01-21 07:19:00,
2013-01-21 02:24:00,25.9,9.8,30.09,WSW,248,0.9,1.3,50,0.00,,,0.00,WUHU216HW,2013-01-21 07:24:00,
2013-01-21 02:29:00,25.9,10.2,30.10,WSW,248,0.4,1.3,51,2.59,,,0.04,WUHU216HW,2013-01-21 07:29:00,
2013-01-21 02:34:00,25.6,9.9,30.10,SW,225,0.4,1.3,51,0.00,,,0.00,WUHU216HW,2013-01-21 07:34:00,
2013-01-21 02:39:00,25.6,9.9,30.10,WSW,248,0.4,0.9,51,2.59,,,0.04,WUHU216HW,2013-01-21 07:39:00,
2013-01-21 02:44:00,25.6,9.9,30.10,West,270,0.4,0.9,51,0.00,,,0.00,WUHU216HW,2013-01-21 07:44:00,
2013-01-21 02:54:00,25.6,9.9,30.10,NW,315,0.4,2.5,51,0.00,,,0.00,WUHU216HW,2013-01-21 07:54:00,
2013-01-21 03:04:00,25.4,10.2,30.10,South,180,0.0,0.9,52,0.00,,,0.00,WUHU216HW,2013-01-21 08:04:00,
2013-01-21 03:14:00,25.0,9.8,30.10,South,180,0.0,0.9,52,0.00,,,0.00,WUHU216HW,2013-01-21 08:14:00,
2013-01-21 03:24:00,24.7,9.9,30.09,SW,225,0.0,0.4,53,0.00,,,0.00,WUHU216HW,2013-01-21 08:24:00,
2013-01-21 03:34:00,24.5,10.2,30.09,WNW,293,0.0,0.0,54,0.00,,,0.00,WUHU216HW,2013-01-21 08:34:00,
2013-01-21 03:44:00,24.1,9.8,30.09,West,270,0.0,0.2,54,0.00,,,0.00,WUHU216HW,2013-01-21 08:44:00,
2013-01-21 03:54:00,23.9,10.1,30.09,West,270,0.0,0.0,55,0.00,,,0.00,WUHU216HW,2013-01-21 08:54:00,
2013-01-21 04:04:00,23.4,9.9,30.09,SSW,203,0.0,0.4,56,0.00,,,0.00,WUHU216HW,2013-01-21 09:04:00,
2013-01-21 04:14:00,23.2,9.7,30.09,SSW,203,0.0,0.0,56,0.00,,,0.00,WUHU216HW,2013-01-21 09:14:00,
2013-01-21 04:24:00,22.7,9.6,30.09,NNW,338,0.0,0.0,57,0.00,,,0.00,WUHU216HW,2013-01-21 09:24:00,
2013-01-21 04:34:00,22.3,10.9,30.09,West,270,0.4,0.4,61,0.00,,,0.00,WUHU216HW,2013-01-21 09:34:00,
2013-01-21 04:44:00,22.0,10.5,30.09,WNW,293,0.0,0.2,61,0.00,,,0.00,WUHU216HW,2013-01-21 09:44:00,
2013-01-21 04:54:00,22.0,10.9,30.09,West,270,0.0,0.4,62,0.00,,,0.00,WUHU216HW,2013-01-21 09:54:00,
2013-01-21 05:04:00,22.0,10.2,30.09,West,270,0.0,0.0,60,0.00,,,0.00,WUHU216HW,2013-01-21 10:04:00,
2013-01-21 05:14:00,21.8,10.4,30.09,South,180,0.4,0.4,61,0.00,,,0.00,WUHU216HW,2013-01-21 10:14:00,
2013-01-21 05:24:00,21.6,10.2,30.09,South,180,0.0,0.2,61,0.00,,,0.00,WUHU216HW,2013-01-21 10:24:00,
2013-01-21 05:34:00,21.4,10.1,30.09,South,180,0.0,0.0,61,0.00,,,0.00,WUHU216HW,2013-01-21 10:34:00,
2013-01-21 05:44:00,21.4,10.1,30.09,South,180,0.0,0.0,61,0.00,,,0.00,WUHU216HW,2013-01-21 10:44:00,
2013-01-21 05:54:00,21.2,10.3,30.09,South,180,0.0,0.0,62,0.00,,,0.00,WUHU216HW,2013-01-21 10:54:00,
2013-01-21 06:04:00,21.4,10.7,30.09,South,180,0.0,0.0,63,0.00,,,0.00,WUHU216HW,2013-01-21 11:04:00,
2013-01-21 06:14:00,21.6,10.9,30.09,South,180,0.0,0.0,63,0.00,,,0.00,WUHU216HW,2013-01-21 11:14:00,
2013-01-21 06:25:00,21.6,10.9,30.09,South,180,0.0,0.0,63,0.00,,,0.00,WUHU216HW,2013-01-21 11:25:00,
2013-01-21 06:35:00,21.6,11.3,30.10,South,180,0.0,0.0,64,0.00,,,0.00,WUHU216HW,2013-01-21 11:35:00,
2013-01-21 06:45:00,21.6,11.3,30.09,SSE,158,0.0,0.0,64,0.00,,,0.00,WUHU216HW,2013-01-21 11:45:00,
2013-01-21 06:55:00,21.6,11.6,30.10,SSE,158,0.0,0.0,65,0.00,,,0.00,WUHU216HW,2013-01-21 11:55:00,
2013-01-21 07:05:00,21.6,11.6,30.10,SSE,158,0.0,0.0,65,0.00,,,0.00,WUHU216HW,2013-01-21 12:05:00,
2013-01-21 07:15:00,21.8,11.8,30.09,SSE,158,0.0,0.7,65,0.00,,,0.00,WUHU216HW,2013-01-21 12:15:00,
2013-01-21 07:25:00,22.0,12.0,30.09,South,180,0.0,0.0,65,0.00,,,0.00,WUHU216HW,2013-01-21 12:25:00,
2013-01-21 07:35:00,22.3,12.2,30.09,South,180,0.0,0.0,65,0.00,,,0.00,WUHU216HW,2013-01-21 12:35:00,
2013-01-21 07:45:00,22.5,12.8,30.10,South,180,0.0,0.0,66,0.00,,,0.00,WUHU216HW,2013-01-21 12:45:00,
2013-01-21 07:55:00,22.7,13.0,30.10,South,180,0.0,0.0,66,0.00,,,0.00,WUHU216HW,2013-01-21 12:55:00,
2013-01-21 08:05:00,23.2,13.5,30.10,North,0,0.0,0.2,66,0.00,,,0.00,WUHU216HW,2013-01-21 13:05:00,
2013-01-21 08:15:00,23.4,14.8,30.10,NNW,338,0.0,0.2,69,0.00,,,0.00,WUHU216HW,2013-01-21 13:15:00,
2013-01-21 08:20:00,23.4,14.8,30.10,NW,315,0.0,0.0,69,2.59,,,0.10,WUHU216HW,2013-01-21 13:20:00,
2013-01-21 08:25:00,23.6,14.9,30.10,West,270,0.0,0.0,69,0.00,,,0.00,WUHU216HW,2013-01-21 13:25:00,
2013-01-21 08:30:00,23.9,14.9,30.11,West,270,0.0,0.0,68,2.59,,,0.10,WUHU216HW,2013-01-21 13:30:00,
2013-01-21 08:35:00,24.1,14.7,30.10,West,270,0.0,0.0,67,2.59,,,0.10,WUHU216HW,2013-01-21 13:35:00,
2013-01-21 08:45:00,24.5,14.7,30.10,SW,225,0.0,0.4,66,0.00,,,0.00,WUHU216HW,2013-01-21 13:45:00,
2013-01-21 08:50:00,24.8,15.0,30.11,WSW,248,0.4,0.4,66,2.59,,,0.10,WUHU216HW,2013-01-21 13:50:00,
2013-01-21 08:55:00,25.0,14.5,30.11,West,270,0.0,0.4,64,2.59,,,0.10,WUHU216HW,2013-01-21 13:55:00,
2013-01-21 09:00:00,25.2,14.7,30.10,SW,225,0.0,0.9,64,0.00,,,0.10,WUHU216HW,2013-01-21 14:00:00,
2013-01-21 09:05:00,25.6,15.0,30.10,SW,225,0.4,1.1,64,2.59,,,0.11,WUHU216HW,2013-01-21 14:05:00,
2013-01-21 09:10:00,25.7,14.9,30.11,SSW,203,0.7,1.1,63,2.59,,,0.11,WUHU216HW,2013-01-21 14:10:00,
2013-01-21 09:19:00,25.7,14.5,30.11,SSW,203,2.5,2.5,62,2.59,,,0.11,WUHU216HW,2013-01-21 14:19:00,
2013-01-21 09:25:00,25.7,14.1,30.11,South,180,0.0,2.5,61,0.00,,,0.00,WUHU216HW,2013-01-21 14:25:00,
2013-01-21 09:30:00,25.7,14.1,30.11,SSW,203,1.1,1.1,61,2.59,,,0.11,WUHU216HW,2013-01-21 14:30:00,
2013-01-21 09:39:00,26.1,14.1,30.11,West,270,0.0,1.1,60,2.59,,,0.11,WUHU216HW,2013-01-21 14:39:00,
2013-01-21 09:45:00,26.1,14.1,30.11,WSW,248,0.0,0.7,60,0.00,,,0.00,WUHU216HW,2013-01-21 14:45:00,
2013-01-21 09:50:00,26.3,14.6,30.11,ENE,68,0.0,0.9,61,2.59,,,0.11,WUHU216HW,2013-01-21 14:50:00,
2013-01-21 09:59:00,26.3,13.9,30.10,SW,225,0.7,0.7,59,2.59,,,0.11,WUHU216HW,2013-01-21 14:59:00,
2013-01-21 10:05:00,26.5,14.8,30.10,WSW,248,0.4,1.3,61,0.00,,,0.00,WUHU216HW,2013-01-21 15:05:00,
2013-01-21 10:11:00,26.6,14.6,30.10,West,270,0.0,1.3,60,2.59,,,0.12,WUHU216HW,2013-01-21 15:11:00,
2013-01-21 10:19:00,26.6,13.8,30.09,WSW,248,0.4,0.9,58,2.59,,,0.12,WUHU216HW,2013-01-21 15:19:00,
2013-01-21 10:25:00,26.8,13.5,30.09,NW,315,0.4,1.1,57,0.00,,,0.00,WUHU216HW,2013-01-21 15:25:00,
2013-01-21 10:31:00,26.6,13.8,30.09,North,0,0.2,1.1,58,2.59,,,0.12,WUHU216HW,2013-01-21 15:31:00,
2013-01-21 10:39:00,27.0,13.7,30.08,WSW,248,0.4,1.1,57,2.59,,,0.12,WUHU216HW,2013-01-21 15:39:00,
2013-01-21 10:45:00,27.0,14.1,30.09,WSW,248,0.4,1.1,58,0.00,,,0.00,WUHU216HW,2013-01-21 15:45:00,
2013-01-21 10:51:00,27.4,14.5,30.08,South,180,0.2,0.7,58,2.59,,,0.12,WUHU216HW,2013-01-21 15:51:00,
2013-01-21 11:00:00,27.7,14.4,30.07,SW,225,0.2,1.3,57,2.59,,,0.12,WUHU216HW,2013-01-21 16:00:00,
2013-01-21 11:05:00,28.1,14.8,30.06,South,180,0.7,1.3,57,0.00,,,0.00,WUHU216HW,2013-01-21 16:05:00,
2013-01-21 11:11:00,28.6,15.8,30.06,South,180,1.1,1.1,58,2.59,,,0.13,WUHU216HW,2013-01-21 16:11:00,
2013-01-21 11:20:00,29.0,15.7,30.05,South,180,0.2,1.6,57,2.59,,,0.13,WUHU216HW,2013-01-21 16:20:00,
2013-01-21 11:25:00,29.2,15.8,30.05,ESE,113,0.9,0.9,57,0.00,,,0.00,WUHU216HW,2013-01-21 16:25:00,
2013-01-21 11:31:00,29.3,15.6,30.05,SSE,158,2.5,2.7,56,2.59,,,0.13,WUHU216HW,2013-01-21 16:31:00,
2013-01-21 11:40:00,29.3,15.6,30.04,SW,225,1.1,2.5,56,2.59,,,0.13,WUHU216HW,2013-01-21 16:40:00,
2013-01-21 11:45:00,29.7,15.5,30.04,SW,225,2.0,2.0,55,0.00,,,0.00,WUHU216HW,2013-01-21 16:45:00,
2013-01-21 11:51:00,29.7,15.5,30.03,SSW,203,0.2,2.0,55,2.59,,,0.13,WUHU216HW,2013-01-21 16:51:00,
2013-01-21 12:00:00,30.1,15.8,30.03,SW,225,0.0,2.7,55,0.00,,,0.13,WUHU216HW,2013-01-21 17:00:00,
2013-01-21 12:05:00,30.2,15.1,30.02,SSW,203,3.1,3.1,53,0.00,,,0.00,WUHU216HW,2013-01-21 17:05:00,
2013-01-21 12:11:00,30.2,15.5,30.02,West,270,0.2,3.1,54,2.59,,,0.14,WUHU216HW,2013-01-21 17:11:00,
2013-01-21 12:20:00,30.2,15.5,30.01,WSW,248,1.8,3.8,54,2.59,,,0.14,WUHU216HW,2013-01-21 17:20:00,
2013-01-21 12:25:00,30.2,15.1,30.01,SW,225,1.3,3.1,53,0.00,,,0.00,WUHU216HW,2013-01-21 17:25:00,
2013-01-21 12:31:00,30.2,15.5,30.00,WSW,248,0.2,2.5,54,2.59,,,0.14,WUHU216HW,2013-01-21 17:31:00,
2013-01-21 12:40:00,30.2,15.1,30.00,South,180,2.5,2.5,53,2.59,,,0.14,WUHU216HW,2013-01-21 17:40:00,
2013-01-21 12:45:00,30.2,15.1,30.00,WSW,248,3.1,3.1,53,0.00,,,0.00,WUHU216HW,2013-01-21 17:45:00,
2013-01-21 12:52:00,30.2,15.1,29.99,SSW,203,1.1,3.1,53,2.59,,,0.14,WUHU216HW,2013-01-21 17:52:00,
2013-01-21 13:00:00,30.2,15.1,29.99,WSW,248,0.4,2.5,53,0.00,,,0.14,WUHU216HW,2013-01-21 18:00:00,
2013-01-21 13:05:00,30.2,15.1,29.99,SW,225,3.4,4.0,53,0.00,,,0.00,WUHU216HW,2013-01-21 18:05:00,
2013-01-21 13:12:00,30.2,15.1,29.99,South,180,1.8,3.4,53,2.59,,,0.15,WUHU216HW,2013-01-21 18:12:00,
2013-01-21 13:20:00,30.2,15.1,29.99,WSW,248,1.6,3.1,53,2.59,,,0.15,WUHU216HW,2013-01-21 18:20:00,
2013-01-21 13:25:00,29.9,14.4,29.99,SSW,203,0.4,3.8,52,0.00,,,0.00,WUHU216HW,2013-01-21 18:25:00,
2013-01-21 13:32:00,29.9,14.8,29.98,SSW,203,0.4,1.8,53,2.59,,,0.15,WUHU216HW,2013-01-21 18:32:00,
2013-01-21 13:40:00,29.9,14.8,29.98,SSW,203,1.6,3.4,53,2.59,,,0.15,WUHU216HW,2013-01-21 18:40:00,
2013-01-21 13:45:00,29.7,14.6,29.98,SW,225,0.7,4.0,53,0.00,,,0.00,WUHU216HW,2013-01-21 18:45:00,
2013-01-21 13:52:00,29.5,14.9,29.97,West,270,0.4,0.9,54,2.59,,,0.15,WUHU216HW,2013-01-21 18:52:00,
2013-01-21 14:00:00,29.3,15.1,29.97,SSW,203,0.4,3.4,55,0.00,,,0.15,WUHU216HW,2013-01-21 19:00:00,
2013-01-21 14:05:00,29.5,15.3,29.97,SW,225,1.8,3.4,55,0.00,,,0.00,WUHU216HW,2013-01-21 19:05:00,
2013-01-21 14:12:00,29.5,15.3,29.97,WNW,293,0.0,2.5,55,2.59,,,0.16,WUHU216HW,2013-01-21 19:12:00,
2013-01-21 14:20:00,29.2,15.8,29.97,SE,135,0.0,1.8,57,2.59,,,0.16,WUHU216HW,2013-01-21 19:20:00,
2013-01-21 14:25:00,29.2,15.8,29.97,WSW,248,1.1,1.6,57,0.00,,,0.00,WUHU216HW,2013-01-21 19:25:00,
2013-01-21 14:32:00,29.0,15.7,29.96,South,180,1.1,1.8,57,2.59,,,0.16,WUHU216HW,2013-01-21 19:32:00,
2013-01-21 14:40:00,29.2,15.8,29.96,South,180,2.7,3.4,57,2.59,,,0.16,WUHU216HW,2013-01-21 19:40:00,
2013-01-21 14:45:00,29.3,16.4,29.96,West,270,0.9,2.7,58,0.00,,,0.00,WUHU216HW,2013-01-21 19:45:00,
2013-01-21 14:50:00,29.2,16.2,29.95,NW,315,1.1,2.0,58,2.59,,,0.16,WUHU216HW,2013-01-21 19:50:00,
2013-01-21 14:55:00,28.8,16.3,29.95,West,270,0.2,1.8,59,0.00,,,0.00,WUHU216HW,2013-01-21 19:55:00,
2013-01-21 15:00:00,28.8,15.8,29.94,NNW,338,0.4,1.8,58,0.00,,,0.16,WUHU216HW,2013-01-21 20:00:00,
2013-01-21 15:05:00,29.0,16.5,29.94,SW,225,1.3,1.3,59,0.00,,,0.00,WUHU216HW,2013-01-21 20:05:00,
2013-01-21 15:10:00,29.0,16.0,29.94,WSW,248,0.7,2.2,58,2.59,,,0.17,WUHU216HW,2013-01-21 20:10:00,
2013-01-21 15:15:00,29.0,16.0,29.94,WSW,248,0.7,2.2,58,0.00,,,0.00,WUHU216HW,2013-01-21 20:15:00,
2013-01-21 15:20:00,29.2,16.2,29.93,South,180,0.4,1.3,58,2.59,,,0.17,WUHU216HW,2013-01-21 20:20:00,
2013-01-21 15:25:00,29.2,16.2,29.93,South,180,1.3,1.3,58,0.00,,,0.00,WUHU216HW,2013-01-21 20:25:00,
2013-01-21 15:30:00,29.2,16.7,29.93,West,270,0.2,1.3,59,2.59,,,0.17,WUHU216HW,2013-01-21 20:30:00,
2013-01-21 15:35:00,29.0,16.5,29.93,North,0,0.4,1.1,59,0.00,,,0.00,WUHU216HW,2013-01-21 20:35:00,
2013-01-21 15:40:00,28.8,16.8,29.92,NW,315,0.9,0.9,60,2.59,,,0.17,WUHU216HW,2013-01-21 20:40:00,
2013-01-21 15:45:00,28.6,16.6,29.92,WSW,248,0.0,1.8,60,0.00,,,0.00,WUHU216HW,2013-01-21 20:45:00,
2013-01-21 15:50:00,28.6,16.6,29.92,SW,225,0.2,1.8,60,2.59,,,0.17,WUHU216HW,2013-01-21 20:50:00,
2013-01-21 15:55:00,28.8,16.8,29.91,North,0,0.0,0.4,60,0.00,,,0.00,WUHU216HW,2013-01-21 20:55:00,
2013-01-21 16:00:00,29.0,16.5,29.91,SSW,203,0.0,1.1,59,0.00,,,0.17,WUHU216HW,2013-01-21 21:00:00,
2013-01-21 16:05:00,29.2,16.7,29.91,West,270,0.0,1.1,59,2.59,,,0.18,WUHU216HW,2013-01-21 21:05:00,
2013-01-21 16:13:00,29.2,16.7,29.91,SSW,203,0.0,0.4,59,2.59,,,0.18,WUHU216HW,2013-01-21 21:13:00,
2013-01-21 16:20:00,29.2,16.7,29.91,SSW,203,0.0,1.3,59,2.59,,,0.18,WUHU216HW,2013-01-21 21:20:00,
2013-01-21 16:25:00,29.2,16.7,29.90,NW,315,0.0,1.3,59,2.59,,,0.18,WUHU216HW,2013-01-21 21:25:00,
2013-01-21 16:33:00,29.2,16.7,29.91,NW,315,0.0,0.0,59,2.59,,,0.18,WUHU216HW,2013-01-21 21:33:00,
2013-01-21 16:40:00,29.2,16.7,29.91,NNW,338,0.0,0.0,59,2.59,,,0.18,WUHU216HW,2013-01-21 21:40:00,
2013-01-21 16:45:00,29.2,16.7,29.91,NNE,23,0.0,0.2,59,2.59,,,0.18,WUHU216HW,2013-01-21 21:45:00,
2013-01-21 16:53:00,29.0,16.5,29.91,NNE,23,0.0,0.2,59,2.59,,,0.18,WUHU216HW,2013-01-21 21:53:00,
2013-01-21 17:00:00,29.0,16.5,29.91,NNE,23,0.0,0.0,59,0.00,,,0.18,WUHU216HW,2013-01-21 22:00:00,
2013-01-21 17:05:00,29.0,16.5,29.91,NNE,23,0.0,0.0,59,2.59,,,0.19,WUHU216HW,2013-01-21 22:05:00,
2013-01-21 17:13:00,29.0,16.5,29.91,NNW,338,0.0,0.0,59,2.59,,,0.19,WUHU216HW,2013-01-21 22:13:00,
2013-01-21 17:20:00,28.8,16.3,29.91,NNW,338,0.0,0.0,59,2.59,,,0.19,WUHU216HW,2013-01-21 22:20:00,
2013-01-21 17:26:00,28.8,16.8,29.91,NNW,338,0.0,0.0,60,2.59,,,0.19,WUHU216HW,2013-01-21 22:26:00,
2013-01-21 17:33:00,28.8,16.8,29.92,NNW,338,0.0,0.0,60,2.59,,,0.19,WUHU216HW,2013-01-21 22:33:00,
2013-01-21 17:40:00,28.8,16.8,29.92,NNW,338,0.0,0.0,60,2.59,,,0.19,WUHU216HW,2013-01-21 22:40:00,
2013-01-21 17:46:00,28.6,16.6,29.91,NNW,338,0.0,0.0,60,2.59,,,0.19,WUHU216HW,2013-01-21 22:46:00,
2013-01-21 17:53:00,28.8,16.8,29.91,NNW,338,0.0,0.0,60,2.59,,,0.19,WUHU216HW,2013-01-21 22:53:00,
2013-01-21 18:00:00,28.6,16.6,29.91,NNW,338,0.0,0.0,60,0.00,,,0.19,WUHU216HW,2013-01-21 23:00:00,
2013-01-21 18:06:00,28.6,16.6,29.91,NNW,338,0.0,0.0,60,2.59,,,0.20,WUHU216HW,2013-01-21 23:06:00,
2013-01-21 18:13:00,28.6,16.6,29.91,NNW,338,0.0,0.0,60,2.59,,,0.20,WUHU216HW,2013-01-21 23:13:00,
2013-01-21 18:20:00,28.6,16.6,29.91,NNW,338,0.0,0.0,60,2.59,,,0.20,WUHU216HW,2013-01-21 23:20:00,
2013-01-21 18:26:00,28.4,16.7,29.91,NNW,338,0.0,0.0,61,2.59,,,0.20,WUHU216HW,2013-01-21 23:26:00,
2013-01-21 18:33:00,28.4,16.7,29.91,NNW,338,0.0,0.2,61,2.59,,,0.20,WUHU216HW,2013-01-21 23:33:00,
2013-01-21 18:40:00,28.4,17.1,29.91,NNW,338,0.0,0.0,62,2.59,,,0.20,WUHU216HW,2013-01-21 23:40:00,
2013-01-21 18:46:00,28.4,17.1,29.91,NNW,338,0.0,0.0,62,2.59,,,0.20,WUHU216HW,2013-01-21 23:46:00,
2013-01-21 18:54:00,28.4,17.1,29.91,North,0,0.2,0.4,62,2.59,,,0.20,WUHU216HW,2013-01-21 23:54:00,
2013-01-21 19:00:00,28.4,17.1,29.91,North,0,0.0,0.4,62,0.00,,,0.20,WUHU216HW,2013-01-22 00:00:00,
2013-01-21 19:06:00,28.4,17.1,29.91,NNW,338,0.0,0.4,62,2.59,,,0.21,WUHU216HW,2013-01-22 00:06:00,
2013-01-21 19:14:00,28.3,16.9,29.91,North,0,0.0,0.4,62,2.59,,,0.21,WUHU216HW,2013-01-22 00:14:00,
2013-01-21 19:20:00,28.3,16.9,29.91,NNW,338,0.2,0.2,62,2.59,,,0.21,WUHU216HW,2013-01-22 00:20:00,
2013-01-21 19:26:00,28.1,16.7,29.91,West,270,0.4,1.3,62,2.59,,,0.21,WUHU216HW,2013-01-22 00:26:00,
2013-01-21 19:34:00,28.1,16.7,29.91,NNW,338,0.0,1.8,62,2.59,,,0.21,WUHU216HW,2013-01-22 00:34:00,
2013-01-21 19:40:00,28.1,17.5,29.91,NW,315,0.2,0.4,64,2.59,,,0.21,WUHU216HW,2013-01-22 00:40:00,
2013-01-21 19:45:00,28.1,17.5,29.92,North,0,2.7,2.7,64,0.00,,,0.00,WUHU216HW,2013-01-22 00:45:00,
2013-01-21 19:50:00,28.1,17.5,29.92,North,0,1.3,2.7,64,2.59,,,0.21,WUHU216HW,2013-01-22 00:50:00,
2013-01-21 19:55:00,28.1,17.5,29.92,NW,315,0.4,2.0,64,0.00,,,0.00,WUHU216HW,2013-01-22 00:55:00,
2013-01-21 20:00:00,28.1,17.5,29.92,NNW,338,0.0,2.0,64,2.59,,,0.21,WUHU216HW,2013-01-22 01:00:00,
2013-01-21 20:05:00,28.1,17.5,29.92,NW,315,0.0,2.5,64,0.00,,,0.00,WUHU216HW,2013-01-22 01:05:00,
2013-01-21 20:14:00,27.9,18.0,29.91,NNW,338,0.2,1.8,66,2.59,,,0.22,WUHU216HW,2013-01-22 01:14:00,
2013-01-21 20:20:00,27.7,18.2,29.91,West,270,0.4,1.3,67,2.59,,,0.22,WUHU216HW,2013-01-22 01:20:00,
2013-01-21 20:25:00,27.7,18.2,29.90,NW,315,1.3,1.3,67,0.00,,,0.00,WUHU216HW,2013-01-22 01:25:00,
2013-01-21 20:34:00,27.5,18.4,29.91,WNW,293,0.4,1.3,68,2.59,,,0.22,WUHU216HW,2013-01-22 01:34:00,
2013-01-21 20:40:00,27.4,17.8,29.90,NW,315,0.0,1.1,67,2.59,,,0.22,WUHU216HW,2013-01-22 01:40:00,
2013-01-21 20:45:00,27.4,18.5,29.90,SW,225,1.3,1.3,69,0.00,,,0.00,WUHU216HW,2013-01-22 01:45:00,
2013-01-21 20:54:00,27.0,18.5,29.90,WSW,248,0.0,1.3,70,2.59,,,0.22,WUHU216HW,2013-01-22 01:54:00,
2013-01-21 21:00:00,27.0,18.2,29.90,SW,225,0.4,1.3,69,0.00,,,0.22,WUHU216HW,2013-01-22 02:00:00,
2013-01-21 21:05:00,27.0,18.5,29.90,NW,315,0.9,0.9,70,0.00,,,0.00,WUHU216HW,2013-01-22 02:05:00,
2013-01-21 21:15:00,27.0,18.8,29.88,NW,315,2.0,2.9,71,2.59,,,0.23,WUHU216HW,2013-01-22 02:15:00,
2013-01-21 21:20:00,26.8,18.6,29.88,West,270,0.4,2.9,71,2.59,,,0.23,WUHU216HW,2013-01-22 02:20:00,
2013-01-21 21:25:00,26.6,18.5,29.88,NW,315,1.8,2.2,71,0.00,,,0.00,WUHU216HW,2013-01-22 02:25:00,
2013-01-21 21:35:00,26.3,18.5,29.89,NNW,338,0.2,1.8,72,2.59,,,0.23,WUHU216HW,2013-01-22 02:35:00,
2013-01-21 21:40:00,26.3,18.5,29.89,West,270,0.4,1.1,72,2.59,,,0.23,WUHU216HW,2013-01-22 02:40:00,
2013-01-21 21:45:00,26.3,18.5,29.89,WSW,248,0.2,1.8,72,0.00,,,0.00,WUHU216HW,2013-01-22 02:45:00,
2013-01-21 21:55:00,26.1,18.3,29.89,NW,315,0.7,2.7,72,2.59,,,0.23,WUHU216HW,2013-01-22 02:55:00,
2013-01-21 22:00:00,26.1,18.9,29.89,NW,315,1.8,1.8,74,0.00,,,0.23,WUHU216HW,2013-01-22 03:00:00,
2013-01-21 22:05:00,26.1,18.9,29.88,NW,315,1.1,1.8,74,0.00,,,0.00,WUHU216HW,2013-01-22 03:05:00,
2013-01-21 22:15:00,25.7,18.5,29.88,NNW,338,1.6,1.6,74,2.59,,,0.24,WUHU216HW,2013-01-22 03:15:00,
2013-01-21 22:20:00,25.7,18.5,29.88,WSW,248,0.2,1.6,74,2.59,,,0.24,WUHU216HW,2013-01-22 03:20:00,
2013-01-21 22:25:00,25.7,18.5,29.87,WNW,293,0.4,4.0,74,0.00,,,0.00,WUHU216HW,2013-01-22 03:25:00,
2013-01-21 22:30:00,25.6,18.1,29.88,West,270,1.3,4.0,73,2.59,,,0.24,WUHU216HW,2013-01-22 03:30:00,
2013-01-21 22:36:00,25.6,18.1,29.87,West,270,0.7,4.0,73,0.00,,,0.00,WUHU216HW,2013-01-22 03:36:00,
2013-01-21 22:45:00,25.6,17.7,29.87,WNW,293,2.2,3.8,72,2.59,,,0.24,WUHU216HW,2013-01-22 03:45:00,
2013-01-21 22:50:00,25.6,17.7,29.88,WNW,293,2.5,3.8,72,2.59,,,0.24,WUHU216HW,2013-01-22 03:50:00,
2013-01-21 22:56:00,25.4,17.3,29.88,North,0,0.4,3.1,71,0.00,,,0.00,WUHU216HW,2013-01-22 03:56:00,
2013-01-21 23:05:00,25.4,15.2,29.88,NW,315,4.0,4.0,65,2.59,,,0.25,WUHU216HW,2013-01-22 04:05:00,
2013-01-21 23:11:00,25.4,13.8,29.87,West,270,1.6,4.9,61,2.59,,,0.25,WUHU216HW,2013-01-22 04:11:00,
2013-01-21 23:16:00,25.4,13.4,29.88,WNW,293,1.8,4.9,60,0.00,,,0.00,WUHU216HW,2013-01-22 04:16:00,
2013-01-21 23:21:00,25.2,12.4,29.87,NW,315,2.0,3.8,58,2.59,,,0.25,WUHU216HW,2013-01-22 04:21:00,
2013-01-21 23:26:00,25.2,11.6,29.87,NW,315,1.1,3.8,56,2.59,,,0.25,WUHU216HW,2013-01-22 04:26:00,
2013-01-21 23:35:00,25.0,10.3,29.87,NNW,338,3.1,3.8,53,0.00,,,0.00,WUHU216HW,2013-01-22 04:35:00,
2013-01-21 23:41:00,24.8,10.1,29.87,NW,315,4.3,4.3,53,2.59,,,0.25,WUHU216HW,2013-01-22 04:41:00,
2013-01-21 23:46:00,24.8,10.1,29.87,West,270,3.1,4.3,53,2.59,,,0.25,WUHU216HW,2013-01-22 04:46:00,
2013-01-21 23:55:00,24.7,9.5,29.87,West,270,0.4,3.4,52,0.00,,,0.00,WUHU216HW,2013-01-22 04:55:00,